Terminal Aerodrome Forecast
Issued by NWS

Home | Current Version | Previous Version | Text Only | Print | Product List | Glossary On
Versions: 1 2 3 4 5 6 7 8 9 10 11 12
709
FTUS45 KFGZ 121122
TAFPRC
TAF
KPRC 121122Z 1212/1312 18005KT P6SM SKC
     FM121600 01005KT P6SM SKC
     FM130100 19006KT P6SM SKC=

USA.gov is the U.S. government's official web portal to all federal, state and local government web resources and services.